sensor_id;sensor_type;location;lat;lon;timestamp;P1;durP1;ratioP1;P2;durP2;ratioP2
5297;SDS011;14738;42.668;23.250;2022-07-05T00:00:33;6.57;;;5.97;;
5297;SDS011;14738;42.668;23.250;2022-07-05T00:02:58;7.00;;;6.30;;
5297;SDS011;14738;42.668;23.250;2022-07-05T00:05:24;7.63;;;6.93;;
5297;SDS011;14738;42.668;23.250;2022-07-05T00:07:49;8.20;;;7.40;;
5297;SDS011;14738;42.668;23.250;2022-07-05T00:10:15;7.60;;;6.70;;
5297;SDS011;14738;42.668;23.250;2022-07-05T00:12:40;7.07;;;6.57;;
5297;SDS011;14738;42.668;23.250;2022-07-05T00:15:06;7.00;;;6.30;;
5297;SDS011;14738;42.668;23.250;2022-07-05T00:17:32;7.10;;;6.23;;
5297;SDS011;14738;42.668;23.250;2022-07-05T00:19:57;6.03;;;5.53;;
5297;SDS011;14738;42.668;23.250;2022-07-05T00:22:23;7.30;;;5.60;;
5297;SDS011;14738;42.668;23.250;2022-07-05T00:24:48;6.03;;;5.60;;
5297;SDS011;14738;42.668;23.250;2022-07-05T00:27:15;7.43;;;6.30;;
5297;SDS011;14738;42.668;23.250;2022-07-05T00:29:41;5.83;;;5.33;;
5297;SDS011;14738;42.668;23.250;2022-07-05T00:32:06;6.97;;;5.47;;
5297;SDS011;14738;42.668;23.250;2022-07-05T00:34:32;6.00;;;5.50;;
5297;SDS011;14738;42.668;23.250;2022-07-05T00:36:57;6.30;;;5.77;;
5297;SDS011;14738;42.668;23.250;2022-07-05T00:39:22;5.97;;;5.47;;
5297;SDS011;14738;42.668;23.250;2022-07-05T00:41:48;10.50;;;6.40;;
5297;SDS011;14738;42.668;23.250;2022-07-05T00:44:13;7.17;;;6.47;;
5297;SDS011;14738;42.668;23.250;2022-07-05T00:46:39;7.07;;;6.37;;
5297;SDS011;14738;42.668;23.250;2022-07-05T00:49:07;6.37;;;5.77;;
5297;SDS011;14738;42.668;23.250;2022-07-05T00:51:34;8.20;;;6.40;;
5297;SDS011;14738;42.668;23.250;2022-07-05T00:54:01;7.43;;;6.70;;
5297;SDS011;14738;42.668;23.250;2022-07-05T00:56:27;6.33;;;5.80;;
5297;SDS011;14738;42.668;23.250;2022-07-05T00:58:53;6.03;;;5.53;;
5297;SDS011;14738;42.668;23.250;2022-07-05T01:01:19;6.50;;;6.00;;
5297;SDS011;14738;42.668;23.250;2022-07-05T01:03:45;6.70;;;5.90;;
5297;SDS011;14738;42.668;23.250;2022-07-05T01:06:11;6.23;;;5.73;;
5297;SDS011;14738;42.668;23.250;2022-07-05T01:08:41;6.77;;;6.20;;
5297;SDS011;14738;42.668;23.250;2022-07-05T01:11:08;6.20;;;5.70;;
5297;SDS011;14738;42.668;23.250;2022-07-05T01:13:35;7.63;;;6.00;;
5297;SDS011;14738;42.668;23.250;2022-07-05T01:16:04;9.53;;;6.10;;
5297;SDS011;14738;42.668;23.250;2022-07-05T01:18:31;6.30;;;5.60;;
5297;SDS011;14738;42.668;23.250;2022-07-05T01:20:57;6.23;;;5.73;;
5297;SDS011;14738;42.668;23.250;2022-07-05T01:23:25;7.00;;;6.40;;
5297;SDS011;14738;42.668;23.250;2022-07-05T01:25:52;7.50;;;6.00;;
5297;SDS011;14738;42.668;23.250;2022-07-05T01:28:19;6.77;;;6.10;;
5297;SDS011;14738;42.668;23.250;2022-07-05T01:30:44;7.30;;;5.90;;
5297;SDS011;14738;42.668;23.250;2022-07-05T01:33:10;7.10;;;6.50;;
5297;SDS011;14738;42.668;23.250;2022-07-05T01:35:36;6.70;;;6.10;;
5297;SDS011;14738;42.668;23.250;2022-07-05T01:38:02;6.20;;;5.63;;
5297;SDS011;14738;42.668;23.250;2022-07-05T01:40:28;6.83;;;6.23;;
5297;SDS011;14738;42.668;23.250;2022-07-05T01:42:54;6.90;;;6.13;;
5297;SDS011;14738;42.668;23.250;2022-07-05T01:45:20;6.70;;;6.20;;
5297;SDS011;14738;42.668;23.250;2022-07-05T01:48:05;9.03;;;6.27;;
5297;SDS011;14738;42.668;23.250;2022-07-05T01:50:34;7.50;;;6.90;;
5297;SDS011;14738;42.668;23.250;2022-07-05T01:53:03;6.90;;;6.30;;
5297;SDS011;14738;42.668;23.250;2022-07-05T01:55:30;7.83;;;5.90;;
5297;SDS011;14738;42.668;23.250;2022-07-05T01:57:55;6.43;;;5.93;;
5297;SDS011;14738;42.668;23.250;2022-07-05T02:00:21;6.60;;;6.10;;
5297;SDS011;14738;42.668;23.250;2022-07-05T02:02:47;6.73;;;6.13;;
5297;SDS011;14738;42.668;23.250;2022-07-05T02:05:12;7.10;;;6.13;;
5297;SDS011;14738;42.668;23.250;2022-07-05T02:07:47;6.40;;;5.80;;
5297;SDS011;14738;42.668;23.250;2022-07-05T02:10:14;7.43;;;6.77;;
5297;SDS011;14738;42.668;23.250;2022-07-05T02:12:40;6.40;;;5.80;;
5297;SDS011;14738;42.668;23.250;2022-07-05T02:15:05;7.10;;;6.20;;
5297;SDS011;14738;42.668;23.250;2022-07-05T02:17:31;6.67;;;6.07;;
5297;SDS011;14738;42.668;23.250;2022-07-05T02:19:56;7.00;;;6.17;;
5297;SDS011;14738;42.668;23.250;2022-07-05T02:22:22;6.40;;;5.80;;
5297;SDS011;14738;42.668;23.250;2022-07-05T02:24:48;6.13;;;5.63;;
5297;SDS011;14738;42.668;23.250;2022-07-05T02:27:13;7.20;;;6.53;;
5297;SDS011;14738;42.668;23.250;2022-07-05T02:29:39;6.93;;;6.17;;
5297;SDS011;14738;42.668;23.250;2022-07-05T02:32:04;6.60;;;6.03;;
5297;SDS011;14738;42.668;23.250;2022-07-05T02:34:30;7.97;;;7.23;;
5297;SDS011;14738;42.668;23.250;2022-07-05T02:36:55;7.00;;;6.30;;
5297;SDS011;14738;42.668;23.250;2022-07-05T02:39:21;7.70;;;6.00;;
5297;SDS011;14738;42.668;23.250;2022-07-05T02:41:46;9.27;;;6.60;;
5297;SDS011;14738;42.668;23.250;2022-07-05T02:44:12;7.03;;;6.33;;
5297;SDS011;14738;42.668;23.250;2022-07-05T02:46:38;7.20;;;6.57;;
5297;SDS011;14738;42.668;23.250;2022-07-05T02:49:03;8.00;;;6.23;;
5297;SDS011;14738;42.668;23.250;2022-07-05T02:51:29;6.80;;;6.03;;
5297;SDS011;14738;42.668;23.250;2022-07-05T02:53:54;9.87;;;6.20;;
5297;SDS011;14738;42.668;23.250;2022-07-05T02:56:20;6.40;;;5.90;;
5297;SDS011;14738;42.668;23.250;2022-07-05T02:58:45;7.00;;;6.40;;
5297;SDS011;14738;42.668;23.250;2022-07-05T03:01:11;8.60;;;7.30;;
5297;SDS011;14738;42.668;23.250;2022-07-05T03:03:36;7.33;;;5.67;;
5297;SDS011;14738;42.668;23.250;2022-07-05T03:06:01;7.70;;;5.97;;
5297;SDS011;14738;42.668;23.250;2022-07-05T03:08:27;6.30;;;5.73;;
5297;SDS011;14738;42.668;23.250;2022-07-05T03:10:52;9.30;;;5.87;;
5297;SDS011;14738;42.668;23.250;2022-07-05T03:13:18;7.10;;;6.40;;
5297;SDS011;14738;42.668;23.250;2022-07-05T03:15:43;7.70;;;6.80;;
5297;SDS011;14738;42.668;23.250;2022-07-05T03:18:08;7.30;;;6.37;;
5297;SDS011;14738;42.668;23.250;2022-07-05T03:20:34;7.10;;;6.40;;
5297;SDS011;14738;42.668;23.250;2022-07-05T03:23:00;7.77;;;7.07;;
5297;SDS011;14738;42.668;23.250;2022-07-05T03:25:25;6.97;;;6.37;;
5297;SDS011;14738;42.668;23.250;2022-07-05T03:27:51;6.90;;;6.37;;
5297;SDS011;14738;42.668;23.250;2022-07-05T03:30:16;7.03;;;6.33;;
5297;SDS011;14738;42.668;23.250;2022-07-05T03:32:42;6.77;;;6.20;;
5297;SDS011;14738;42.668;23.250;2022-07-05T03:35:07;7.07;;;6.47;;
5297;SDS011;14738;42.668;23.250;2022-07-05T03:37:33;8.27;;;6.60;;
5297;SDS011;14738;42.668;23.250;2022-07-05T03:39:58;8.90;;;6.70;;
5297;SDS011;14738;42.668;23.250;2022-07-05T03:42:24;7.27;;;6.43;;
5297;SDS011;14738;42.668;23.250;2022-07-05T03:44:49;7.03;;;6.40;;
5297;SDS011;14738;42.668;23.250;2022-07-05T03:47:14;9.67;;;5.90;;
5297;SDS011;14738;42.668;23.250;2022-07-05T03:49:40;7.33;;;5.97;;
5297;SDS011;14738;42.668;23.250;2022-07-05T03:52:05;6.03;;;5.53;;
5297;SDS011;14738;42.668;23.250;2022-07-05T03:54:31;10.73;;;6.50;;
5297;SDS011;14738;42.668;23.250;2022-07-05T03:56:56;6.70;;;6.10;;
5297;SDS011;14738;42.668;23.250;2022-07-05T03:59:21;8.43;;;5.93;;
5297;SDS011;14738;42.668;23.250;2022-07-05T04:01:47;7.10;;;6.50;;
5297;SDS011;14738;42.668;23.250;2022-07-05T04:04:12;6.50;;;5.60;;
5297;SDS011;14738;42.668;23.250;2022-07-05T04:06:38;6.83;;;6.13;;
5297;SDS011;14738;42.668;23.250;2022-07-05T04:09:03;7.50;;;6.93;;
5297;SDS011;14738;42.668;23.250;2022-07-05T04:11:29;8.10;;;7.27;;
5297;SDS011;14738;42.668;23.250;2022-07-05T04:13:54;7.30;;;6.63;;
5297;SDS011;14738;42.668;23.250;2022-07-05T04:16:20;7.13;;;6.43;;
5297;SDS011;14738;42.668;23.250;2022-07-05T04:18:45;7.97;;;7.17;;
5297;SDS011;14738;42.668;23.250;2022-07-05T04:21:11;9.77;;;6.57;;
5297;SDS011;14738;42.668;23.250;2022-07-05T04:23:36;6.37;;;5.67;;
5297;SDS011;14738;42.668;23.250;2022-07-05T04:26:02;6.20;;;5.70;;
5297;SDS011;14738;42.668;23.250;2022-07-05T04:28:28;6.73;;;5.63;;
5297;SDS011;14738;42.668;23.250;2022-07-05T04:30:55;7.97;;;6.03;;
5297;SDS011;14738;42.668;23.250;2022-07-05T04:33:21;8.70;;;7.80;;
5297;SDS011;14738;42.668;23.250;2022-07-05T04:35:47;8.47;;;6.80;;
5297;SDS011;14738;42.668;23.250;2022-07-05T04:38:12;8.30;;;7.50;;
5297;SDS011;14738;42.668;23.250;2022-07-05T04:40:37;7.47;;;6.80;;
5297;SDS011;14738;42.668;23.250;2022-07-05T04:43:03;7.20;;;6.50;;
5297;SDS011;14738;42.668;23.250;2022-07-05T04:45:29;9.10;;;8.20;;
5297;SDS011;14738;42.668;23.250;2022-07-05T04:47:54;8.03;;;7.00;;
5297;SDS011;14738;42.668;23.250;2022-07-05T04:50:19;11.17;;;6.77;;
5297;SDS011;14738;42.668;23.250;2022-07-05T04:52:45;8.57;;;5.97;;
5297;SDS011;14738;42.668;23.250;2022-07-05T04:55:11;6.37;;;5.30;;
5297;SDS011;14738;42.668;23.250;2022-07-05T04:57:40;19.00;;;6.20;;
5297;SDS011;14738;42.668;23.250;2022-07-05T05:00:07;9.13;;;5.90;;
5297;SDS011;14738;42.668;23.250;2022-07-05T05:02:34;5.30;;;4.87;;
5297;SDS011;14738;42.668;23.250;2022-07-05T05:04:59;5.77;;;5.27;;
5297;SDS011;14738;42.668;23.250;2022-07-05T05:07:25;6.00;;;4.83;;
5297;SDS011;14738;42.668;23.250;2022-07-05T05:09:51;4.57;;;4.20;;
5297;SDS011;14738;42.668;23.250;2022-07-05T05:12:16;5.93;;;4.87;;
5297;SDS011;14738;42.668;23.250;2022-07-05T05:14:42;5.80;;;4.83;;
5297;SDS011;14738;42.668;23.250;2022-07-05T05:17:07;5.20;;;4.80;;
5297;SDS011;14738;42.668;23.250;2022-07-05T05:19:32;7.07;;;5.83;;
5297;SDS011;14738;42.668;23.250;2022-07-05T05:21:58;5.53;;;5.13;;
5297;SDS011;14738;42.668;23.250;2022-07-05T05:24:24;8.77;;;5.27;;
5297;SDS011;14738;42.668;23.250;2022-07-05T05:26:50;7.20;;;6.60;;
5297;SDS011;14738;42.668;23.250;2022-07-05T05:29:16;6.87;;;5.13;;
5297;SDS011;14738;42.668;23.250;2022-07-05T05:31:42;7.87;;;4.13;;
5297;SDS011;14738;42.668;23.250;2022-07-05T05:34:07;5.27;;;4.70;;
5297;SDS011;14738;42.668;23.250;2022-07-05T05:36:33;8.43;;;5.07;;
5297;SDS011;14738;42.668;23.250;2022-07-05T05:38:58;5.63;;;5.23;;
5297;SDS011;14738;42.668;23.250;2022-07-05T05:41:24;9.40;;;5.10;;
5297;SDS011;14738;42.668;23.250;2022-07-05T05:43:49;5.70;;;5.07;;
5297;SDS011;14738;42.668;23.250;2022-07-05T05:46:15;4.63;;;4.23;;
5297;SDS011;14738;42.668;23.250;2022-07-05T05:48:41;4.67;;;4.27;;
5297;SDS011;14738;42.668;23.250;2022-07-05T05:51:06;4.87;;;4.37;;
5297;SDS011;14738;42.668;23.250;2022-07-05T05:53:32;4.63;;;4.23;;
5297;SDS011;14738;42.668;23.250;2022-07-05T05:55:57;6.30;;;4.87;;
5297;SDS011;14738;42.668;23.250;2022-07-05T05:58:23;6.37;;;4.83;;
5297;SDS011;14738;42.668;23.250;2022-07-05T06:00:49;4.10;;;3.80;;
5297;SDS011;14738;42.668;23.250;2022-07-05T06:03:18;6.60;;;4.27;;
5297;SDS011;14738;42.668;23.250;2022-07-05T06:05:44;4.60;;;4.30;;
5297;SDS011;14738;42.668;23.250;2022-07-05T06:08:10;5.03;;;4.40;;
5297;SDS011;14738;42.668;23.250;2022-07-05T06:10:36;4.73;;;4.33;;
5297;SDS011;14738;42.668;23.250;2022-07-05T06:13:03;4.27;;;4.07;;
5297;SDS011;14738;42.668;23.250;2022-07-05T06:15:30;6.50;;;4.37;;
5297;SDS011;14738;42.668;23.250;2022-07-05T06:17:57;7.90;;;5.37;;
5297;SDS011;14738;42.668;23.250;2022-07-05T06:20:23;3.77;;;3.57;;
5297;SDS011;14738;42.668;23.250;2022-07-05T06:22:52;4.43;;;3.93;;
5297;SDS011;14738;42.668;23.250;2022-07-05T06:25:18;4.67;;;4.23;;
5297;SDS011;14738;42.668;23.250;2022-07-05T06:27:45;4.53;;;4.20;;
5297;SDS011;14738;42.668;23.250;2022-07-05T06:30:16;4.30;;;4.00;;
5297;SDS011;14738;42.668;23.250;2022-07-05T06:32:43;4.83;;;4.37;;
5297;SDS011;14738;42.668;23.250;2022-07-05T06:35:10;5.03;;;4.07;;
5297;SDS011;14738;42.668;23.250;2022-07-05T06:37:42;5.57;;;3.80;;
5297;SDS011;14738;42.668;23.250;2022-07-05T06:40:09;5.10;;;4.23;;
5297;SDS011;14738;42.668;23.250;2022-07-05T06:42:36;4.30;;;3.90;;
5297;SDS011;14738;42.668;23.250;2022-07-05T06:45:02;4.40;;;4.20;;
5297;SDS011;14738;42.668;23.250;2022-07-05T06:47:28;5.80;;;4.10;;
5297;SDS011;14738;42.668;23.250;2022-07-05T06:49:53;4.70;;;4.30;;
5297;SDS011;14738;42.668;23.250;2022-07-05T06:52:18;4.23;;;3.83;;
5297;SDS011;14738;42.668;23.250;2022-07-05T06:54:44;9.40;;;4.23;;
5297;SDS011;14738;42.668;23.250;2022-07-05T06:57:09;4.13;;;3.73;;
5297;SDS011;14738;42.668;23.250;2022-07-05T06:59:35;4.80;;;4.27;;
5297;SDS011;14738;42.668;23.250;2022-07-05T07:02:01;4.87;;;4.00;;
5297;SDS011;14738;42.668;23.250;2022-07-05T07:04:27;3.40;;;3.30;;
5297;SDS011;14738;42.668;23.250;2022-07-05T07:06:52;8.03;;;4.40;;
5297;SDS011;14738;42.668;23.250;2022-07-05T07:09:18;3.63;;;3.43;;
5297;SDS011;14738;42.668;23.250;2022-07-05T07:11:43;4.17;;;3.97;;
5297;SDS011;14738;42.668;23.250;2022-07-05T07:14:10;4.70;;;4.00;;
5297;SDS011;14738;42.668;23.250;2022-07-05T07:16:35;4.30;;;4.00;;
5297;SDS011;14738;42.668;23.250;2022-07-05T07:19:01;4.07;;;3.87;;
5297;SDS011;14738;42.668;23.250;2022-07-05T07:21:27;6.63;;;4.80;;
5297;SDS011;14738;42.668;23.250;2022-07-05T07:23:52;4.53;;;4.10;;
5297;SDS011;14738;42.668;23.250;2022-07-05T07:26:18;4.40;;;4.00;;
5297;SDS011;14738;42.668;23.250;2022-07-05T07:28:43;4.27;;;4.07;;
5297;SDS011;14738;42.668;23.250;2022-07-05T07:31:09;4.20;;;3.90;;
5297;SDS011;14738;42.668;23.250;2022-07-05T07:33:34;4.10;;;3.80;;
5297;SDS011;14738;42.668;23.250;2022-07-05T07:36:00;4.33;;;3.77;;
5297;SDS011;14738;42.668;23.250;2022-07-05T07:38:25;4.23;;;3.83;;
5297;SDS011;14738;42.668;23.250;2022-07-05T07:40:51;5.00;;;4.60;;
5297;SDS011;14738;42.668;23.250;2022-07-05T07:43:17;5.10;;;4.67;;
5297;SDS011;14738;42.668;23.250;2022-07-05T07:45:43;4.97;;;4.57;;
5297;SDS011;14738;42.668;23.250;2022-07-05T07:48:08;4.77;;;4.47;;
5297;SDS011;14738;42.668;23.250;2022-07-05T07:50:34;5.70;;;5.20;;
5297;SDS011;14738;42.668;23.250;2022-07-05T07:53:00;5.77;;;5.27;;
5297;SDS011;14738;42.668;23.250;2022-07-05T07:55:25;6.67;;;5.73;;
5297;SDS011;14738;42.668;23.250;2022-07-05T07:57:51;6.57;;;4.97;;
5297;SDS011;14738;42.668;23.250;2022-07-05T08:00:16;4.93;;;4.63;;
5297;SDS011;14738;42.668;23.250;2022-07-05T08:02:42;7.23;;;5.83;;
5297;SDS011;14738;42.668;23.250;2022-07-05T08:05:08;5.83;;;5.43;;
5297;SDS011;14738;42.668;23.250;2022-07-05T08:07:36;4.90;;;4.50;;
5297;SDS011;14738;42.668;23.250;2022-07-05T08:10:05;6.63;;;5.10;;
5297;SDS011;14738;42.668;23.250;2022-07-05T08:12:31;4.73;;;4.43;;
5297;SDS011;14738;42.668;23.250;2022-07-05T08:14:56;6.17;;;5.57;;
5297;SDS011;14738;42.668;23.250;2022-07-05T08:17:22;10.83;;;5.23;;
5297;SDS011;14738;42.668;23.250;2022-07-05T08:19:47;5.80;;;5.27;;
5297;SDS011;14738;42.668;23.250;2022-07-05T08:22:31;6.13;;;5.67;;
5297;SDS011;14738;42.668;23.250;2022-07-05T08:24:56;4.97;;;4.67;;
5297;SDS011;14738;42.668;23.250;2022-07-05T08:27:22;5.40;;;4.90;;
5297;SDS011;14738;42.668;23.250;2022-07-05T08:29:48;5.60;;;5.10;;
5297;SDS011;14738;42.668;23.250;2022-07-05T08:32:14;5.57;;;5.17;;
5297;SDS011;14738;42.668;23.250;2022-07-05T08:34:40;4.93;;;4.60;;
5297;SDS011;14738;42.668;23.250;2022-07-05T08:37:06;6.93;;;5.70;;
5297;SDS011;14738;42.668;23.250;2022-07-05T08:39:32;5.93;;;5.30;;
5297;SDS011;14738;42.668;23.250;2022-07-05T08:41:58;11.43;;;5.53;;
5297;SDS011;14738;42.668;23.250;2022-07-05T08:44:27;5.50;;;5.10;;
5297;SDS011;14738;42.668;23.250;2022-07-05T08:46:54;5.80;;;5.37;;
5297;SDS011;14738;42.668;23.250;2022-07-05T08:49:25;7.37;;;5.27;;
5297;SDS011;14738;42.668;23.250;2022-07-05T08:51:52;7.13;;;6.30;;
5297;SDS011;14738;42.668;23.250;2022-07-05T08:54:19;7.70;;;6.30;;
5297;SDS011;14738;42.668;23.250;2022-07-05T08:56:46;9.30;;;5.87;;
5297;SDS011;14738;42.668;23.250;2022-07-05T08:59:12;6.70;;;6.10;;
5297;SDS011;14738;42.668;23.250;2022-07-05T09:01:38;7.07;;;5.80;;
5297;SDS011;14738;42.668;23.250;2022-07-05T09:04:04;7.07;;;6.20;;
5297;SDS011;14738;42.668;23.250;2022-07-05T09:06:35;7.80;;;6.50;;
5297;SDS011;14738;42.668;23.250;2022-07-05T09:09:03;6.30;;;5.70;;
5297;SDS011;14738;42.668;23.250;2022-07-05T09:11:31;5.97;;;5.53;;
5297;SDS011;14738;42.668;23.250;2022-07-05T09:13:59;6.50;;;5.90;;
5297;SDS011;14738;42.668;23.250;2022-07-05T09:16:27;6.40;;;5.87;;
5297;SDS011;14738;42.668;23.250;2022-07-05T09:18:53;7.23;;;6.57;;
5297;SDS011;14738;42.668;23.250;2022-07-05T09:21:23;11.60;;;6.60;;
5297;SDS011;14738;42.668;23.250;2022-07-05T09:26:34;7.47;;;6.87;;
5297;SDS011;14738;42.668;23.250;2022-07-05T09:29:02;7.30;;;6.60;;
5297;SDS011;14738;42.668;23.250;2022-07-05T09:31:30;8.37;;;6.70;;
5297;SDS011;14738;42.668;23.250;2022-07-05T09:34:04;7.20;;;6.43;;
5297;SDS011;14738;42.668;23.250;2022-07-05T09:44:58;9.07;;;6.50;;
5297;SDS011;14738;42.668;23.250;2022-07-05T09:47:23;7.23;;;6.40;;
5297;SDS011;14738;42.668;23.250;2022-07-05T09:49:52;6.40;;;6.00;;
5297;SDS011;14738;42.668;23.250;2022-07-05T09:52:41;7.30;;;6.63;;
5297;SDS011;14738;42.668;23.250;2022-07-05T09:55:14;7.43;;;6.07;;
5297;SDS011;14738;42.668;23.250;2022-07-05T09:57:41;7.43;;;6.17;;
5297;SDS011;14738;42.668;23.250;2022-07-05T10:02:49;6.53;;;6.03;;
5297;SDS011;14738;42.668;23.250;2022-07-05T10:05:26;8.10;;;6.10;;
5297;SDS011;14738;42.668;23.250;2022-07-05T10:07:57;7.57;;;6.87;;
5297;SDS011;14738;42.668;23.250;2022-07-05T10:10:24;7.27;;;6.67;;
5297;SDS011;14738;42.668;23.250;2022-07-05T10:12:52;8.50;;;6.50;;
5297;SDS011;14738;42.668;23.250;2022-07-05T10:15:20;7.80;;;7.10;;
5297;SDS011;14738;42.668;23.250;2022-07-05T10:17:50;7.77;;;7.07;;
5297;SDS011;14738;42.668;23.250;2022-07-05T10:20:21;8.20;;;7.40;;
5297;SDS011;14738;42.668;23.250;2022-07-05T10:23:01;7.90;;;6.47;;
5297;SDS011;14738;42.668;23.250;2022-07-05T10:25:27;6.40;;;5.90;;
5297;SDS011;14738;42.668;23.250;2022-07-05T10:27:53;9.50;;;6.60;;
5297;SDS011;14738;42.668;23.250;2022-07-05T10:30:20;9.00;;;8.10;;
5297;SDS011;14738;42.668;23.250;2022-07-05T10:32:47;7.57;;;6.87;;
5297;SDS011;14738;42.668;23.250;2022-07-05T10:35:15;12.47;;;5.73;;
5297;SDS011;14738;42.668;23.250;2022-07-05T10:37:42;9.90;;;6.83;;
5297;SDS011;14738;42.668;23.250;2022-07-05T10:40:09;6.97;;;6.23;;
5297;SDS011;14738;42.668;23.250;2022-07-05T10:42:37;6.37;;;5.87;;
5297;SDS011;14738;42.668;23.250;2022-07-05T10:50:46;6.47;;;5.93;;
5297;SDS011;14738;42.668;23.250;2022-07-05T11:00:46;6.93;;;6.23;;
5297;SDS011;14738;42.668;23.250;2022-07-05T11:06:02;9.80;;;6.43;;
5297;SDS011;14738;42.668;23.250;2022-07-05T11:08:30;6.50;;;6.00;;
5297;SDS011;14738;42.668;23.250;2022-07-05T11:11:11;6.63;;;6.03;;
5297;SDS011;14738;42.668;23.250;2022-07-05T11:13:38;9.80;;;6.70;;
5297;SDS011;14738;42.668;23.250;2022-07-05T11:19:05;6.60;;;6.10;;
5297;SDS011;14738;42.668;23.250;2022-07-05T11:21:32;6.67;;;6.10;;
5297;SDS011;14738;42.668;23.250;2022-07-05T11:26:42;7.50;;;6.80;;
5297;SDS011;14738;42.668;23.250;2022-07-05T11:29:39;8.50;;;6.30;;
5297;SDS011;14738;42.668;23.250;2022-07-05T11:32:10;6.53;;;6.03;;
5297;SDS011;14738;42.668;23.250;2022-07-05T11:34:38;6.30;;;5.77;;
5297;SDS011;14738;42.668;23.250;2022-07-05T11:39:42;6.87;;;6.00;;
5297;SDS011;14738;42.668;23.250;2022-07-05T11:42:08;6.93;;;6.33;;
5297;SDS011;14738;42.668;23.250;2022-07-05T11:44:35;7.70;;;7.00;;
5297;SDS011;14738;42.668;23.250;2022-07-05T11:47:01;7.10;;;6.60;;
5297;SDS011;14738;42.668;23.250;2022-07-05T11:49:27;7.73;;;7.13;;
5297;SDS011;14738;42.668;23.250;2022-07-05T11:51:57;7.60;;;6.90;;
5297;SDS011;14738;42.668;23.250;2022-07-05T11:54:30;7.20;;;6.50;;
5297;SDS011;14738;42.668;23.250;2022-07-05T11:56:56;7.00;;;6.40;;
5297;SDS011;14738;42.668;23.250;2022-07-05T11:59:24;7.07;;;6.57;;
5297;SDS011;14738;42.668;23.250;2022-07-05T12:01:50;7.33;;;6.73;;
5297;SDS011;14738;42.668;23.250;2022-07-05T12:04:21;7.60;;;6.90;;
5297;SDS011;14738;42.668;23.250;2022-07-05T12:06:49;8.70;;;6.30;;
5297;SDS011;14738;42.668;23.250;2022-07-05T12:09:21;7.70;;;7.10;;
5297;SDS011;14738;42.668;23.250;2022-07-05T12:11:54;7.00;;;6.40;;
5297;SDS011;14738;42.668;23.250;2022-07-05T12:14:48;7.40;;;6.80;;
5297;SDS011;14738;42.668;23.250;2022-07-05T12:17:18;6.40;;;5.90;;
5297;SDS011;14738;42.668;23.250;2022-07-05T12:19:45;7.40;;;6.70;;
5297;SDS011;14738;42.668;23.250;2022-07-05T12:22:11;6.50;;;5.90;;
5297;SDS011;14738;42.668;23.250;2022-07-05T12:24:37;7.93;;;6.90;;
5297;SDS011;14738;42.668;23.250;2022-07-05T12:27:04;7.00;;;6.30;;
5297;SDS011;14738;42.668;23.250;2022-07-05T12:29:30;7.10;;;6.27;;
5297;SDS011;14738;42.668;23.250;2022-07-05T12:32:05;8.47;;;6.50;;
5297;SDS011;14738;42.668;23.250;2022-07-05T12:34:33;7.07;;;5.90;;
5297;SDS011;14738;42.668;23.250;2022-07-05T12:36:59;6.70;;;6.20;;
5297;SDS011;14738;42.668;23.250;2022-07-05T12:39:25;9.70;;;6.37;;
5297;SDS011;14738;42.668;23.250;2022-07-05T12:41:50;6.30;;;5.70;;
5297;SDS011;14738;42.668;23.250;2022-07-05T12:44:19;6.73;;;6.23;;
5297;SDS011;14738;42.668;23.250;2022-07-05T12:46:45;7.07;;;6.43;;
5297;SDS011;14738;42.668;23.250;2022-07-05T12:49:11;7.67;;;6.90;;
5297;SDS011;14738;42.668;23.250;2022-07-05T12:51:38;7.03;;;6.47;;
5297;SDS011;14738;42.668;23.250;2022-07-05T12:54:21;6.93;;;6.40;;
5297;SDS011;14738;42.668;23.250;2022-07-05T12:57:08;6.30;;;5.80;;
5297;SDS011;14738;42.668;23.250;2022-07-05T13:02:37;6.40;;;6.00;;
5297;SDS011;14738;42.668;23.250;2022-07-05T13:05:07;7.10;;;6.50;;
5297;SDS011;14738;42.668;23.250;2022-07-05T13:07:41;7.60;;;7.00;;
5297;SDS011;14738;42.668;23.250;2022-07-05T13:10:45;6.30;;;5.80;;
5297;SDS011;14738;42.668;23.250;2022-07-05T13:12:59;9.50;;;6.53;;
5297;SDS011;14738;42.668;23.250;2022-07-05T13:15:26;6.73;;;6.20;;
5297;SDS011;14738;42.668;23.250;2022-07-05T13:17:52;6.80;;;6.20;;
5297;SDS011;14738;42.668;23.250;2022-07-05T13:20:18;7.23;;;6.50;;
5297;SDS011;14738;42.668;23.250;2022-07-05T13:22:45;7.70;;;7.00;;
5297;SDS011;14738;42.668;23.250;2022-07-05T13:25:11;10.20;;;6.80;;
5297;SDS011;14738;42.668;23.250;2022-07-05T13:27:38;7.57;;;6.87;;
5297;SDS011;14738;42.668;23.250;2022-07-05T13:30:04;6.70;;;6.20;;
5297;SDS011;14738;42.668;23.250;2022-07-05T13:32:30;7.90;;;7.30;;
5297;SDS011;14738;42.668;23.250;2022-07-05T13:34:56;7.07;;;6.37;;
5297;SDS011;14738;42.668;23.250;2022-07-05T13:37:22;8.70;;;6.83;;
5297;SDS011;14738;42.668;23.250;2022-07-05T13:39:47;6.90;;;6.30;;
5297;SDS011;14738;42.668;23.250;2022-07-05T13:42:13;10.33;;;7.30;;
5297;SDS011;14738;42.668;23.250;2022-07-05T13:44:38;7.40;;;6.73;;
5297;SDS011;14738;42.668;23.250;2022-07-05T13:47:04;7.70;;;7.10;;
5297;SDS011;14738;42.668;23.250;2022-07-05T13:49:29;8.97;;;6.67;;
5297;SDS011;14738;42.668;23.250;2022-07-05T13:51:55;8.03;;;7.23;;
5297;SDS011;14738;42.668;23.250;2022-07-05T13:54:22;7.37;;;6.77;;
5297;SDS011;14738;42.668;23.250;2022-07-05T13:56:48;7.10;;;6.60;;
5297;SDS011;14738;42.668;23.250;2022-07-05T13:59:14;7.27;;;6.77;;
5297;SDS011;14738;42.668;23.250;2022-07-05T14:01:39;9.80;;;6.57;;
5297;SDS011;14738;42.668;23.250;2022-07-05T14:04:05;8.17;;;7.17;;
5297;SDS011;14738;42.668;23.250;2022-07-05T14:06:30;7.93;;;7.23;;
5297;SDS011;14738;42.668;23.250;2022-07-05T14:08:57;10.63;;;7.70;;
5297;SDS011;14738;42.668;23.250;2022-07-05T14:11:24;8.67;;;6.50;;
5297;SDS011;14738;42.668;23.250;2022-07-05T14:13:53;7.13;;;6.60;;
5297;SDS011;14738;42.668;23.250;2022-07-05T14:16:19;7.80;;;7.20;;
5297;SDS011;14738;42.668;23.250;2022-07-05T14:18:45;7.73;;;6.73;;
5297;SDS011;14738;42.668;23.250;2022-07-05T14:21:10;8.27;;;7.57;;
5297;SDS011;14738;42.668;23.250;2022-07-05T14:23:40;8.63;;;7.63;;
5297;SDS011;14738;42.668;23.250;2022-07-05T14:26:06;9.87;;;6.53;;
5297;SDS011;14738;42.668;23.250;2022-07-05T14:28:32;7.27;;;6.67;;
5297;SDS011;14738;42.668;23.250;2022-07-05T14:30:57;10.10;;;9.10;;
5297;SDS011;14738;42.668;23.250;2022-07-05T14:33:22;8.03;;;7.33;;
5297;SDS011;14738;42.668;23.250;2022-07-05T14:35:48;7.10;;;6.50;;
5297;SDS011;14738;42.668;23.250;2022-07-05T14:38:13;7.93;;;7.20;;
5297;SDS011;14738;42.668;23.250;2022-07-05T14:40:39;8.00;;;7.03;;
5297;SDS011;14738;42.668;23.250;2022-07-05T14:43:04;8.10;;;7.30;;
5297;SDS011;14738;42.668;23.250;2022-07-05T14:45:30;7.40;;;6.80;;
5297;SDS011;14738;42.668;23.250;2022-07-05T14:47:55;7.83;;;7.10;;
5297;SDS011;14738;42.668;23.250;2022-07-05T14:50:22;9.80;;;6.47;;
5297;SDS011;14738;42.668;23.250;2022-07-05T14:52:47;7.50;;;6.80;;
5297;SDS011;14738;42.668;23.250;2022-07-05T14:55:13;8.30;;;7.60;;
5297;SDS011;14738;42.668;23.250;2022-07-05T14:57:39;7.43;;;6.73;;
5297;SDS011;14738;42.668;23.250;2022-07-05T15:00:07;7.40;;;6.70;;
5297;SDS011;14738;42.668;23.250;2022-07-05T15:02:34;7.00;;;6.50;;
5297;SDS011;14738;42.668;23.250;2022-07-05T15:05:01;10.33;;;7.10;;
5297;SDS011;14738;42.668;23.250;2022-07-05T15:07:27;7.20;;;6.70;;
5297;SDS011;14738;42.668;23.250;2022-07-05T15:09:53;7.00;;;6.40;;
5297;SDS011;14738;42.668;23.250;2022-07-05T15:12:18;7.63;;;6.80;;
5297;SDS011;14738;42.668;23.250;2022-07-05T15:14:44;7.63;;;6.73;;
5297;SDS011;14738;42.668;23.250;2022-07-05T15:17:10;10.00;;;7.07;;
5297;SDS011;14738;42.668;23.250;2022-07-05T15:19:35;7.63;;;6.97;;
5297;SDS011;14738;42.668;23.250;2022-07-05T15:22:01;7.80;;;7.20;;
5297;SDS011;14738;42.668;23.250;2022-07-05T15:24:29;6.20;;;5.70;;
5297;SDS011;14738;42.668;23.250;2022-07-05T15:26:55;6.57;;;5.97;;